Sunday, April 20, 2014

  Over 45,111,151 pages visited!

GMT:
19:12
PACIFIC:
12:12:36 PM
MOUNTAIN:
1:12:36 PM

CENTRAL:
2:12:36 PM

EASTERN:
3:12:36 PM
ATLANTIC:
4:12:36 PM
NEWFOUNDLAND:
4:42:36 PM
 

 


Watches/Warnings
Current Conditions
Radar/Satellite
Lightning Images


Current Weather Conditions For TORONTO PEARSON,ON

 


A Few Clouds
 

Temperature: 12C / 54F
Dew Point: -1C / 30F
Humidity: 41 %
Pressure: 1026.0 mbs (30.3 inches)
Visibility: 24.1 kms (15 SM)
Wind Direction: SE (140)
Wind Speed: 18.5 Km/h (11.5 MPH)
Max Wind Gust: No Gusts
Humidex: N/A
WindChill: N/A
    

Observation Information

Date/Time: Sunday, April 20, 2014 @ 19:00Z
Local Time:
Metar Coded: CYYZ 201900Z 14010KT 15SM FEW190 SCT280 12/M01 A3029 RMK AC2CC2 SLP260

 

 

                   1997-2014 The Ontario Weather Page